Wallops Island, VA

12:44 PM EDT on August 24, 2016 (GMT -0400)
KE5BM-13 | | Change Station

Elev 38 ft 37.92 °N, 75.48 °W | Updated 8 seconds ago

Partly Cloudy
Partly Cloudy
83.5 °F
Feels Like 84 °F
N
3.0
Wind Variable Wind from WNW
Gusts 4.0 mph

Today
High -- | Low -- °F
--% Chance of Precip.
Yesterday
High -- | Low -- °F
Precip. -- in
Pressure 30.30 in
Visibility 10.0 miles
Clouds Few 4000 ft
Few 25000 ft
Heat Index 84 °F
Dew Point 62 °F
Humidity 48%
Rainfall 0.00 in
Snow Depth Not available.
6:25 AM 7:42 PM
Waning Gibbous, 55% visible
METAR KWAL 241554Z VRB05KT 10SM FEW040 FEW250 27/08 A3030 RMK AO2 SLP259 T02720083
Pressure 30.30 in
Visibility 10.0 miles
Clouds Few 4000 ft
Few 25000 ft
Heat Index 84 °F
Dew Point 62 °F
Humidity 48%
Rainfall 0.00 in
Snow Depth Not available.
6:25 AM 7:42 PM
Waning Gibbous, 55% visible
METAR KWAL 241554Z VRB05KT 10SM FEW040 FEW250 27/08 A3030 RMK AO2 SLP259 T02720083

10-Day Weather Forecast

Almanac

Astronomy

Aug. 24, 2016 Rise Set
Actual Time
Civil Twilight
Nautical Twilight
Astronomical Twilight
Moon
Length of Visible Light
Length of Day
Tomorrow will be .
, % of the Moon is Illuminated

Today's Extremes

State Highs State Lows

Community

WunderPhotos

Upload Photos

1,934,652 photos uploaded!

WunderBlog® & News

Nearby

Air Quality

  Air Quality AQ Index Pollutant
Not available.

Snow Depth

Station Depth Elevation

Earthquake Activity

City Distance Mag. Time & Date
Minimum magnitude displayed is 2.5.

Coastal Water Temperatures

Place Temperature

Stations

Nearby Weather Stations

Station Location Temp. Windchill Dew Point Humidity Wind Precip. Elev Updated Type
                   

Watches & Warnings

There are currently no watches in effect.